Terminal Aerodrome Forecast
Issued by NWS

Home | Current Version | Previous Version | Graphics & Text | Print | Product List | Glossary On
Versions: 1 2 3 4 5 6 7 8 9 10 11 12 13 14 15 16 17
000
FTUS43 KBIS 011120
TAFJMS
TAF
KJMS 011120Z 0112/0212 08007KT P6SM VCSH BKN035
     FM011800 11007KT P6SM BKN080
     FM020300 12005KT P6SM VCTS SCT080CB
     FM020900 13005KT P6SM SKC=

USA.gov is the U.S. government's official web portal to all federal, state and local government web resources and services.